• Join FlightAware (Why Join?)
  • Login
  • US Flag 
05:46AM EDT


 

Airport Tracker/Info


-or-


 

Live Flight TrackerFlight Track Log ✈ DAL5846 ✈ 11-Jul-2013 ✈ KIND - KLGA

Flight Track Log - Related Links

Times and Time Zones

All times are in EDT time to prevent confusion due to time zone crossing. See the DAL5846 flight status page for this flight to view local times or setup timezone preferences in your user account.

Time Position Orientation Groundspeed Altitude Reporting Facility
EDT Latitude Longitude Course Direction KTS MPH feet Rate Location/Type
07:11PM 39.7167 -86.2667 38° Northeast 141 162 1,900  Level Indianapolis TRACON
07:12PM 39.7500 -86.2333 38° Northeast 182 209 3,000 1,980 Climbing Indianapolis TRACON
07:13PM 39.7653 -86.1219 80° East 225 259 6,300 2,580 Climbing Indianapolis Center
07:14PM 39.7789 -86.0239 80° East 263 303 9,300 2,760 Climbing Indianapolis Center
07:15PM 39.7933 -85.9183 80° East 292 336 12,100 2,640 Climbing Indianapolis Center
07:16PM 39.8083 -85.8089 80° East 307 353 14,800 2,280 Climbing Indianapolis Center
07:17PM 39.8236 -85.6942 80° East 322 371 16,900 1,620 Climbing Indianapolis Center
07:18PM 39.8403 -85.5678 80° East 353 406 18,200 1,500 Climbing Indianapolis Center
07:19PM 39.8636 -85.3981 80° East 400 460 20,100 1,740 Climbing Indianapolis Center
07:20PM 39.8817 -85.2497 81° East 415 478 21,800 1,560 Climbing Indianapolis Center
07:21PM 39.8911 -85.0958 85° East 425 489 23,400 1,320 Climbing Indianapolis Center
07:22PM 39.8997 -84.9350 86° East 445 512 24,600 1,020 Climbing Indianapolis Center
07:23PM 39.9147 -84.7492 84° East 470 541 25,600 1,140 Climbing Indianapolis Center
07:24PM 39.9878 -84.6075 56° Northeast 464 534 27,000 1,140 Climbing Indianapolis Center
07:25PM 40.0672 -84.4706 53° Northeast 469 540 28,000 840 Climbing Indianapolis Center
07:26PM 40.1494 -84.3281 53° Northeast 480 552 28,800 900 Climbing Indianapolis Center
07:27PM 40.2336 -84.1828 53° Northeast 492 566 29,900 1,200 Climbing Indianapolis Center
07:29PM 40.3156 -84.0389 53° Northeast 489 563 31,300 1,200 Climbing Indianapolis Center
07:30PM 40.3969 -83.8972 53° Northeast 481 554 32,500 1,080 Climbing Indianapolis Center
07:31PM 40.4897 -83.7328 53° Northeast 474 545 33,600 720 Climbing Indianapolis Center
07:32PM 40.5703 -83.5917 53° Northeast 476 548 34,100 480 Climbing Indianapolis Center
07:33PM 40.6519 -83.4458 54° Northeast 487 560 34,600 420 Climbing Indianapolis Center
07:34PM 40.7319 -83.3008 54° Northeast 483 556 35,000 180 Climbing Indianapolis Center
07:35PM 40.8139 -83.1536 54° Northeast 479 551 35,000  Level Indianapolis Center
07:36PM 40.8525 -82.9853 73° East 484 557 35,000  Level Indianapolis Center
07:37PM 40.8694 -82.8072 83° East 485 558 35,000  Level Indianapolis Center
07:38PM 40.8819 -82.6647 83° East 480 552 35,000  Level Cleveland Center
07:39PM 40.8975 -82.4867 83° East 480 552 35,000  Level Cleveland Center
07:40PM 40.9128 -82.3250 83° East 480 552 35,000  Level Cleveland Center
07:41PM 40.9300 -82.1469 83° East 485 558 35,000  Level Cleveland Center
07:42PM 40.9447 -81.9631 84° East 491 565 35,000  Level Cleveland Center
07:43PM 40.9614 -81.7792 83° East 499 574 35,000  Level Cleveland Center
07:44PM 40.9758 -81.5925 84° East 499 574 35,000  Level Cleveland Center
07:45PM 40.9919 -81.4083 83° East 499 574 35,000  Level Cleveland Center
07:46PM 41.0075 -81.2242 84° East 504 580 35,000  Level Cleveland Center
07:47PM 41.0253 -81.0236 83° East 499 574 35,000  Level Cleveland Center
07:48PM 41.0403 -80.8419 84° East 499 574 35,000  Level Cleveland Center
07:49PM 41.0553 -80.6519 84° East 499 574 35,000  Level Cleveland Center
07:50PM 41.0697 -80.4675 84° East 499 574 35,000  Level Cleveland Center
07:51PM 41.0819 -80.2828 85° East 499 574 35,000  Level Cleveland Center
07:52PM 41.0939 -80.0928 85° East 499 574 35,000  Level Cleveland Center
07:53PM 41.1075 -79.9081 84° East 499 574 35,000  Level Cleveland Center
07:54PM 41.1208 -79.7231 84° East 499 574 35,000  Level Cleveland Center
07:55PM 41.1319 -79.5383 85° East 499 574 35,000  Level Cleveland Center
07:56PM 41.1447 -79.3561 85° East 499 574 35,000  Level Cleveland Center
07:57PM 41.1550 -79.1711 86° East 504 580 35,000  Level Cleveland Center
07:58PM 41.1672 -78.9833 85° East 504 580 35,000  Level Cleveland Center
07:59PM 41.1811 -78.7981 84° East 499 574 35,000  Level Cleveland Center
08:00PM 41.1906 -78.6158 86° East 499 574 35,000 -60 Level Cleveland Center
08:01PM 41.2017 -78.4278 85° East 499 574 34,900 -780 Descending Cleveland Center
08:02PM 41.2119 -78.1631 87° East 511 588 33,100 -780 Descending New York Center
08:03PM 41.1958 -77.9875 97° East 499 574 33,000 -60 Descending New York Center
08:04PM 41.1731 -77.8114 100° East 488 562 33,000  Level New York Center
08:05PM 41.1497 -77.6381 100° East 478 550 33,000  Level New York Center
08:06PM 41.1286 -77.4622 99° East 478 550 33,000  Level New York Center
08:07PM 41.1081 -77.3058 100° East 478 550 33,000 -840 Level New York Center
08:08PM 41.0822 -77.1300 101° East 473 544 31,400 -2,100 Descending New York Center
08:09PM 41.0606 -76.9519 99° East 478 550 28,900 -2,520 Descending New York Center
08:10PM 41.0378 -76.7875 100° East 471 542 26,400 -2,400 Descending New York Center
08:11PM 41.0122 -76.6311 102° East 449 517 24,100 -2,280 Descending New York Center
08:12PM 40.9775 -76.4853 107° East 430 495 21,900 -2,100 Descending New York Center
08:13PM 40.9447 -76.3478 107° East 405 466 19,900 -2,160 Descending New York Center
08:14PM 40.9117 -76.2022 107° East 386 444 17,600 -1,800 Descending New York Center
08:15PM 40.8800 -76.0733 108° East 369 425 16,300 -1,320 Descending New York Center
08:16PM 40.8503 -75.9478 107° East 364 419 15,000 -1,260 Descending New York Center
08:17PM 40.8236 -75.8414 108° East 352 405 13,900 -1,020 Descending New York Center
08:18PM 40.7917 -75.7103 108° East 352 405 13,000 -480 Descending New York Center
08:19PM 40.7611 -75.5931 109° East 347 399 13,000  Level New York Center
08:20PM 40.7322 -75.4842 109° East 340 391 13,000 -120 Level New York Center
08:21PM 40.7097 -75.3675 104° East 335 386 12,800 -1,080 Descending New York Center
08:22PM 40.6853 -75.2456 105° East 315 362 10,900 -1,440 Descending New York Center
08:23PM 40.6619 -75.1400 106° East 307 353 10,000 -480 Descending New York Center
08:24PM 40.6236 -75.0500 119° Southeast 302 348 10,000  Level New York Center
08:25PM 40.5853 -74.9603 119° Southeast 296 341 10,000  Level New York Center
08:26PM 40.5367 -74.8564 122° Southeast 296 341 10,100  Climbing New York Center
08:27PM 40.5000 -74.7833 123° Southeast 312 359 10,100  Level New York TRACON
08:28PM 40.4667 -74.6833 114° Southeast 312 359 10,100 -60 Level New York TRACON
08:29PM 40.4333 -74.5833 114° Southeast 311 358 10,000 -60 Descending New York TRACON
08:30PM 40.4500 -74.4667 79° East 313 360 10,000 -720 Level New York TRACON
08:31PM 40.4667 -74.3667 78° East 305 351 8,700 -1,500 Descending New York TRACON
08:32PM 40.5000 -74.2667 66° East 293 337 7,100 -960 Descending New York TRACON
08:33PM 40.5333 -74.1667 66° East 291 335 6,800 -1,140 Descending New York TRACON
08:34PM 40.5833 -74.0833 52° Northeast 272 313 4,800 -1,740 Descending New York TRACON
08:35PM 40.6333 -74.0167 45° Northeast 265 305 3,200 -1,260 Descending New York TRACON
08:36PM 40.6833 -73.9667 37° Northeast 243 280 2,500 -660 Descending New York TRACON
08:37PM 40.7167 -73.9167 49° Northeast 182 209 2,000 -720 Descending New York TRACON
08:38PM 40.7333 -73.8500 72° East 153 176 1,000 -780 Descending New York TRACON
08:39PM 40.7667 -73.8500 360° North 135 155 400 -600 Descending New York TRACON